Aviation Digital Data Service (ADDS)

Output produced by METARs form (0030 UTC 28 March 2017)
found at http://aviationweather.gov/adds/metars/
 
KAGC 272323Z 2800/2824 VRB04KT P6SM BKN120 
     FM280800 14003KT 3SM -SHRA OVC050 
     FM281000 15003KT 2SM -SHRA BR OVC015 
     FM281600 28004KT 4SM -SHRA BR OVC008 
     FM282000 32007KT P6SM OVC015